Time;durP1;ratioP1;P1;durP2;ratioP2;P2;SDS_P1;SDS_P2;PMS_P1;PMS_P2;Temp;Humidity;BMP_temperature;BMP_pressure;BME280_temperature;BME280_humidity;BME280_pressure;Samples;Min_cycle;Max_cycle;Signal;HPM_P1;HPM_P2
2021/12/13 00:02:00;;;;;;;;;;;;;;;11.29;55.41;101453.22;4958193;28;98356;-68
2021/12/13 00:04:32;;;;;;;;;;;;;;;11.29;55.39;101455.91;4962824;28;98016;-67
2021/12/13 00:07:02;;;;;;;;;;;;;;;11.28;55.76;101457.78;4963786;28;118027;-68
2021/12/13 00:09:28;;;;;;;;;;;;;;;11.29;55.80;101459.41;4963197;28;99552;-59
2021/12/13 00:11:57;;;;;;;;;;;;;;;11.29;55.27;101467.50;4927380;28;107093;-68
2021/12/13 00:14:33;;;;;;;;;;;;;;;11.30;55.77;101469.16;4925661;28;99415;-59
2021/12/13 00:17:04;;;;;;;;;;;;;;;11.30;55.45;101465.63;4954185;28;97751;-59
2021/12/13 00:19:41;;;;;;;;;;;;;;;11.31;55.58;101472.66;4963774;28;99213;-68
2021/12/13 00:22:12;;;;;;;;;;;;;;;11.30;55.42;101469.16;4956269;28;97951;-57
2021/12/13 00:24:39;;;;;;;;;;;;;;;11.30;55.81;101463.75;4954574;28;99097;-68
2021/12/13 00:27:20;;;;;;;;;;;;;;;11.32;55.31;101468.91;4938284;28;98219;-59
2021/12/13 00:30:10;;;;;;;;;;;;;;;11.33;55.79;101469.72;4925109;28;104856;-59
2021/12/13 00:32:48;;;;;;;;;;;;;;;11.33;55.74;101472.44;4935220;28;97849;-68
2021/12/13 00:35:16;;;;;;;;;;;;;;;11.33;55.75;101465.13;4961376;28;109196;-64
2021/12/13 00:37:45;;;;;;;;;;;;;;;11.34;55.80;101465.97;4962208;28;118617;-67
2021/12/13 00:40:22;;;;;;;;;;;;;;;11.34;55.60;101465.97;4960858;28;124014;-59
2021/12/13 00:42:56;;;;;;;;;;;;;;;11.36;55.56;101463.81;4959927;28;98259;-59
2021/12/13 00:45:23;;;;;;;;;;;;;;;11.35;55.69;101459.47;4962626;28;99807;-59
2021/12/13 00:47:49;;;;;;;;;;;;;;;11.35;55.80;101456.78;4963716;28;97763;-59
2021/12/13 00:50:21;;;;;;;;;;;;;;;11.36;55.66;101459.25;4961501;28;126098;-57
2021/12/13 00:52:47;;;;;;;;;;;;;;;11.35;55.63;101456.78;4955180;28;98695;-66
2021/12/13 00:55:20;;;;;;;;;;;;;;;11.36;55.78;101461.94;4961956;28;114743;-66
2021/12/13 00:57:48;;;;;;;;;;;;;;;11.36;55.61;101461.09;4946210;28;98007;-66
2021/12/13 01:00:36;;;;;;;;;;;;;;;11.36;55.91;101461.94;4945225;28;98519;-57
2021/12/13 01:03:12;;;;;;;;;;;;;;;11.37;55.60;101465.47;4955657;28;99041;-57
2021/12/13 01:06:15;;;;;;;;;;;;;;;11.36;55.55;101467.34;4964511;28;98484;-66
2021/12/13 01:09:18;;;;;;;;;;;;;;;11.37;55.34;101468.16;4964083;28;98318;-66
2021/12/13 01:12:00;;;;;;;;;;;;;;;11.37;55.73;101471.69;4960730;28;98351;-57
2021/12/13 01:14:33;;;;;;;;;;;;;;;11.37;55.86;101479.78;4961952;28;112070;-66
2021/12/13 01:17:14;;;;;;;;;;;;;;;11.38;55.92;101480.59;4964185;28;97735;-66
2021/12/13 01:19:56;;;;;;;;;;;;;;;11.37;55.62;101477.06;4963428;28;98008;-68
2021/12/13 01:22:39;;;;;;;;;;;;;;;11.38;56.04;101484.09;4942751;28;98356;-68
2021/12/13 01:26:13;;;;;;;;;;;;;;;11.38;55.73;101477.88;4940705;28;97875;-59
2021/12/13 01:28:42;;;;;;;;;;;;;;;11.38;55.91;101486.00;4935986;28;98476;-68
2021/12/13 01:31:29;;;;;;;;;;;;;;;11.38;55.68;101486.00;4943994;28;116069;-68
2021/12/13 01:33:55;;;;;;;;;;;;;;;11.39;56.09;101490.31;4962535;28;98340;-59
2021/12/13 01:36:26;;;;;;;;;;;;;;;11.39;55.76;101499.22;4963391;28;98302;-67
2021/12/13 01:38:58;;;;;;;;;;;;;;;11.40;56.07;101498.19;4963858;28;97957;-59
2021/12/13 01:41:45;;;;;;;;;;;;;;;11.39;55.72;101506.50;4961755;28;118083;-68
2021/12/13 01:44:14;;;;;;;;;;;;;;;11.40;55.79;101505.47;4959669;28;99079;-68
2021/12/13 01:46:43;;;;;;;;;;;;;;;11.40;55.83;101503.59;4959936;28;99241;-59
2021/12/13 01:49:09;;;;;;;;;;;;;;;11.42;55.90;101514.94;4963442;28;118863;-59
2021/12/13 01:51:35;;;;;;;;;;;;;;;11.41;56.04;101505.22;4958407;28;97919;-59
2021/12/13 01:54:03;;;;;;;;;;;;;;;11.41;56.06;101505.22;4959680;28;99099;-68
2021/12/13 01:56:45;;;;;;;;;;;;;;;11.41;56.11;101510.59;4934055;28;99674;-59
2021/12/13 01:59:41;;;;;;;;;;;;;;;11.43;55.98;101507.66;4949105;28;97983;-59
2021/12/13 02:02:17;;;;;;;;;;;;;;;11.43;55.63;101507.66;4945719;28;97975;-69
2021/12/13 02:04:45;;;;;;;;;;;;;;;11.43;56.12;101496.84;4944054;28;118811;-59
2021/12/13 02:07:11;;;;;;;;;;;;;;;11.43;55.79;101505.75;4960122;28;124486;-59
2021/12/13 02:09:40;;;;;;;;;;;;;;;11.43;55.84;101513.88;4962653;28;97859;-68
2021/12/13 02:12:13;;;;;;;;;;;;;;;11.45;55.77;101513.63;4955666;28;97760;-68
2021/12/13 02:14:47;;;;;;;;;;;;;;;11.45;55.84;101517.16;4954475;28;98084;-59
2021/12/13 02:17:18;;;;;;;;;;;;;;;11.44;55.98;101515.53;4965007;28;99609;-59
2021/12/13 02:20:00;;;;;;;;;;;;;;;11.45;55.87;101517.16;4968021;28;120204;-68
2021/12/13 02:22:40;;;;;;;;;;;;;;;11.45;56.17;101514.44;4960691;28;97933;-59
2021/12/13 02:25:16;;;;;;;;;;;;;;;11.46;55.63;101512.56;4964234;28;97699;-69
2021/12/13 02:27:45;;;;;;;;;;;;;;;11.46;56.16;101515.25;4965808;28;98165;-59
2021/12/13 02:30:21;;;;;;;;;;;;;;;11.47;56.23;101514.19;4962301;28;122102;-68
2021/12/13 02:32:47;;;;;;;;;;;;;;;11.48;55.85;101516.66;4956112;28;98341;-68
2021/12/13 02:35:13;;;;;;;;;;;;;;;11.48;56.31;101518.53;4965314;28;100503;-68
2021/12/13 02:37:39;;;;;;;;;;;;;;;11.46;55.89;101521.47;4962763;28;98349;-60
2021/12/13 02:40:06;;;;;;;;;;;;;;;11.49;55.94;101517.47;4964813;28;121655;-59
2021/12/13 02:42:32;;;;;;;;;;;;;;;11.49;56.20;101514.78;4947958;28;97834;-59
2021/12/13 02:45:17;;;;;;;;;;;;;;;11.49;56.24;101522.88;4963894;28;128914;-59
2021/12/13 02:47:50;;;;;;;;;;;;;;;11.50;55.99;101525.31;4966640;28;97899;-68
2021/12/13 02:50:47;;;;;;;;;;;;;;;11.49;56.27;101523.69;4945627;28;98010;-60
2021/12/13 02:53:13;;;;;;;;;;;;;;;11.50;55.90;101519.09;4957214;28;97806;-59
2021/12/13 02:55:40;;;;;;;;;;;;;;;11.51;56.00;101520.72;4964695;28;121009;-68
2021/12/13 02:58:08;;;;;;;;;;;;;;;11.51;56.10;101526.97;4963194;28;99168;-59
2021/12/13 03:00:50;;;;;;;;;;;;;;;11.52;56.04;101525.09;4963298;28;122597;-68
2021/12/13 03:03:17;;;;;;;;;;;;;;;11.52;56.17;101533.19;4958644;28;97754;-67
2021/12/13 03:05:46;;;;;;;;;;;;;;;11.52;55.96;101525.09;4963469;28;97975;-60
2021/12/13 03:08:18;;;;;;;;;;;;;;;11.52;56.26;101528.59;4964571;28;98510;-68
2021/12/13 03:10:48;;;;;;;;;;;;;;;11.54;56.24;101533.75;4965227;28;98280;-69
2021/12/13 03:13:18;;;;;;;;;;;;;;;11.54;56.00;101536.44;4957634;28;97697;-68
2021/12/13 03:15:49;;;;;;;;;;;;;;;11.54;56.20;101539.13;4965568;28;99234;-59
2021/12/13 03:18:24;;;;;;;;;;;;;;;11.54;56.23;101536.44;4964054;28;113007;-68
2021/12/13 03:20:56;;;;;;;;;;;;;;;11.54;56.54;101531.03;4947356;28;98279;-68
2021/12/13 03:23:48;;;;;;;;;;;;;;;11.54;56.29;101529.16;4957304;28;98349;-59
2021/12/13 03:26:42;;;;;;;;;;;;;;;11.55;55.93;101529.97;4963290;28;98470;-59
2021/12/13 03:29:19;;;;;;;;;;;;;;;11.55;56.23;101532.66;4964085;28;112062;-67
2021/12/13 03:31:49;;;;;;;;;;;;;;;11.57;56.39;101529.72;4960404;28;99062;-59
2021/12/13 03:34:30;;;;;;;;;;;;;;;11.57;56.23;101529.72;4963181;28;97766;-68
2021/12/13 03:37:17;;;;;;;;;;;;;;;11.57;56.20;101535.94;4961920;28;98913;-59
2021/12/13 03:39:48;;;;;;;;;;;;;;;11.57;56.04;101530.56;4962316;28;126301;-59
2021/12/13 03:42:32;;;;;;;;;;;;;;;11.57;56.11;101533.25;4956419;28;122438;-59
2021/12/13 03:45:00;;;;;;;;;;;;;;;11.57;56.38;101530.56;4945093;28;97945;-68
2021/12/13 03:47:34;;;;;;;;;;;;;;;11.57;56.39;101535.94;4963079;28;124296;-69
2021/12/13 03:50:04;;;;;;;;;;;;;;;11.58;56.47;101536.75;4965734;28;98421;-59
2021/12/13 03:52:30;;;;;;;;;;;;;;;11.59;56.26;101538.38;4955659;28;98349;-59
2021/12/13 03:54:59;;;;;;;;;;;;;;;11.58;56.51;101542.97;4963142;28;97985;-59
2021/12/13 03:57:25;;;;;;;;;;;;;;;11.60;56.25;101542.75;4963593;28;99461;-60
2021/12/13 03:59:51;;;;;;;;;;;;;;;11.59;55.96;101541.91;4965198;28;98964;-59
2021/12/13 04:02:27;;;;;;;;;;;;;;;11.59;56.43;101550.00;4956844;28;98298;-68
2021/12/13 04:04:55;;;;;;;;;;;;;;;11.59;56.06;101560.81;4963543;28;112076;-68
2021/12/13 04:07:24;;;;;;;;;;;;;;;11.60;56.12;101559.75;4962619;28;98384;-69
2021/12/13 04:09:55;;;;;;;;;;;;;;;11.60;56.36;101557.06;4962857;28;121539;-59
2021/12/13 04:12:26;;;;;;;;;;;;;;;11.59;56.41;101555.41;4955974;28;97958;-60
2021/12/13 04:14:57;;;;;;;;;;;;;;;11.60;56.35;101551.66;4965285;28;98101;-67
2021/12/13 04:17:45;;;;;;;;;;;;;;;11.61;56.16;101555.19;4963480;28;98528;-59
2021/12/13 04:20:19;;;;;;;;;;;;;;;11.60;56.53;101548.97;4963222;28;98868;-59
2021/12/13 04:22:49;;;;;;;;;;;;;;;11.61;56.26;101553.28;4956517;28;98340;-62
2021/12/13 04:25:17;;;;;;;;;;;;;;;11.61;56.35;101553.28;4966083;28;97688;-68
2021/12/13 04:28:11;;;;;;;;;;;;;;;11.61;56.17;101557.88;4966274;28;98216;-69
2021/12/13 04:30:52;;;;;;;;;;;;;;;11.61;56.38;101560.56;4959295;28;98998;-68
2021/12/13 04:33:41;;;;;;;;;;;;;;;11.63;56.18;101571.94;4954499;28;97877;-59
2021/12/13 04:36:10;;;;;;;;;;;;;;;11.62;56.54;101554.91;4963583;28;120327;-68
2021/12/13 04:38:50;;;;;;;;;;;;;;;11.63;56.25;101561.97;4962159;28;98420;-68
2021/12/13 04:41:37;;;;;;;;;;;;;;;11.63;56.37;101570.09;4940961;28;98972;-63
2021/12/13 04:44:10;;;;;;;;;;;;;;;11.63;56.38;101575.47;4940447;28;98039;-59
2021/12/13 04:46:37;;;;;;;;;;;;;;;11.64;56.49;101570.88;4950327;28;97881;-60
2021/12/13 04:49:08;;;;;;;;;;;;;;;11.64;56.47;101568.19;4965883;28;98233;-68
2021/12/13 04:51:56;;;;;;;;;;;;;;;11.66;56.19;101571.44;4962716;28;98518;-68
2021/12/13 04:54:22;;;;;;;;;;;;;;;11.65;56.25;101576.03;4962396;28;98241;-68
2021/12/13 04:56:48;;;;;;;;;;;;;;;11.66;56.52;101580.38;4965022;28;98283;-59
2021/12/13 04:59:14;;;;;;;;;;;;;;;11.67;56.54;101583.88;4963693;28;124080;-68
2021/12/13 05:01:44;;;;;;;;;;;;;;;11.67;56.56;101576.63;4959081;28;119490;-68
2021/12/13 05:04:10;;;;;;;;;;;;;;;11.67;56.40;101571.22;4959642;28;98084;-59
2021/12/13 05:06:38;;;;;;;;;;;;;;;11.68;56.25;101580.94;4964187;28;98384;-68
2021/12/13 05:09:06;;;;;;;;;;;;;;;11.68;56.20;101578.25;4962654;28;98927;-59
2021/12/13 05:11:37;;;;;;;;;;;;;;;11.69;56.54;101573.66;4959566;28;98281;-59
2021/12/13 05:14:03;;;;;;;;;;;;;;;11.71;56.12;101576.91;4958857;28;100545;-59
2021/12/13 05:16:39;;;;;;;;;;;;;;;11.71;56.25;101575.06;4963696;28;97795;-59
2021/12/13 05:19:05;;;;;;;;;;;;;;;11.71;56.14;101577.75;4963528;28;98468;-68
2021/12/13 05:21:41;;;;;;;;;;;;;;;11.72;56.50;101601.00;4959257;28;120063;-59
2021/12/13 05:24:37;;;;;;;;;;;;;;;11.73;56.36;101586.41;4959132;28;123729;-68
2021/12/13 05:27:07;;;;;;;;;;;;;;;11.73;56.47;101602.63;4924199;28;98000;-59
2021/12/13 05:29:41;;;;;;;;;;;;;;;11.75;56.39;101599.66;4963171;28;99482;-68
2021/12/13 05:32:08;;;;;;;;;;;;;;;11.76;56.12;101607.53;4941160;28;98842;-59
2021/12/13 05:34:40;;;;;;;;;;;;;;;11.76;56.31;101610.25;4962926;28;97959;-59
2021/12/13 05:37:06;;;;;;;;;;;;;;;11.77;56.62;101611.06;4956074;28;98070;-68
2021/12/13 05:39:33;;;;;;;;;;;;;;;11.76;56.26;101606.72;4962608;28;99202;-59
2021/12/13 05:42:02;;;;;;;;;;;;;;;11.77;56.20;101606.47;4957431;28;98956;-68
2021/12/13 05:44:32;;;;;;;;;;;;;;;11.78;56.74;101608.09;4960769;28;114450;-59
2021/12/13 05:46:58;;;;;;;;;;;;;;;11.76;56.36;101607.53;4960925;28;97958;-60
2021/12/13 05:49:42;;;;;;;;;;;;;;;11.78;56.04;101618.09;4959500;28;123126;-60
2021/12/13 05:52:10;;;;;;;;;;;;;;;11.79;56.12;101622.44;4956623;28;121952;-60
2021/12/13 05:54:44;;;;;;;;;;;;;;;11.79;56.08;101625.97;4954629;28;97891;-59
2021/12/13 05:57:17;;;;;;;;;;;;;;;11.80;56.46;101626.78;4962339;28;98079;-59
2021/12/13 06:00:19;;;;;;;;;;;;;;;11.80;56.16;101632.19;4965501;28;97940;-59
2021/12/13 06:03:16;;;;;;;;;;;;;;;11.79;56.25;101623.25;4953544;28;98531;-59
2021/12/13 06:05:52;;;;;;;;;;;;;;;11.80;56.48;101624.06;4962264;28;97905;-59
2021/12/13 06:08:46;;;;;;;;;;;;;;;11.82;56.17;101623.81;4962378;28;97920;-60
2021/12/13 06:11:17;;;;;;;;;;;;;;;11.80;56.06;101624.88;4958791;28;98503;-59
2021/12/13 06:13:43;;;;;;;;;;;;;;;11.80;56.44;101630.28;4934611;28;98550;-59
2021/12/13 06:16:37;;;;;;;;;;;;;;;11.82;56.33;101630.03;4944118;28;97873;-60
2021/12/13 06:19:11;;;;;;;;;;;;;;;11.83;56.21;101620.03;4957307;28;98112;-59
2021/12/13 06:21:55;;;;;;;;;;;;;;;11.82;56.09;101624.63;4959107;28;98434;-59
2021/12/13 06:24:45;;;;;;;;;;;;;;;11.83;56.37;101628.16;4960679;28;98313;-60
2021/12/13 06:27:14;;;;;;;;;;;;;;;11.83;56.25;101639.81;4960753;28;98384;-59
2021/12/13 06:30:03;;;;;;;;;;;;;;;11.83;56.36;101634.41;4962055;28;98074;-60
2021/12/13 06:32:41;;;;;;;;;;;;;;;11.83;56.13;101634.41;4952956;28;97834;-59
2021/12/13 06:35:28;;;;;;;;;;;;;;;11.84;56.23;101641.44;4960873;28;98748;-59
2021/12/13 06:37:54;;;;;;;;;;;;;;;11.84;56.37;101643.34;4961569;28;98064;-59
2021/12/13 06:40:27;;;;;;;;;;;;;;;11.84;56.42;101641.44;4962912;28;97952;-59
2021/12/13 06:42:55;;;;;;;;;;;;;;;11.84;56.43;101630.66;4952962;28;98723;-60
2021/12/13 06:45:27;;;;;;;;;;;;;;;11.85;56.22;101631.47;4958999;28;98549;-59
2021/12/13 06:47:54;;;;;;;;;;;;;;;11.85;56.08;101634.16;4956767;28;117452;-59
2021/12/13 06:50:23;;;;;;;;;;;;;;;11.85;56.26;101639.56;4958246;28;97829;-59
2021/12/13 06:52:49;;;;;;;;;;;;;;;11.85;56.28;101639.56;4937108;28;98343;-59
2021/12/13 06:55:16;;;;;;;;;;;;;;;11.85;56.29;101644.97;4958128;28;102335;-59
2021/12/13 06:57:46;;;;;;;;;;;;;;;11.86;56.24;101650.13;4953546;28;106324;-59
2021/12/13 07:00:20;;;;;;;;;;;;;;;11.86;56.45;101649.28;4958012;28;98212;-59
2021/12/13 07:02:56;;;;;;;;;;;;;;;11.86;56.36;101652.00;4949121;28;98634;-59
2021/12/13 07:05:41;;;;;;;;;;;;;;;11.86;56.33;101652.81;4955385;28;98865;-59
2021/12/13 07:08:16;;;;;;;;;;;;;;;11.86;56.28;101655.50;4957622;28;98296;-59
2021/12/13 07:10:52;;;;;;;;;;;;;;;11.89;56.16;101659.63;4958251;28;113108;-60
2021/12/13 07:13:26;;;;;;;;;;;;;;;11.89;56.24;101665.84;4948965;28;98906;-60
2021/12/13 07:15:58;;;;;;;;;;;;;;;11.89;56.35;101667.72;4957352;28;98638;-60
2021/12/13 07:18:30;;;;;;;;;;;;;;;11.90;56.32;101669.34;4958379;28;112754;-63
2021/12/13 07:21:10;;;;;;;;;;;;;;;11.92;56.37;101667.25;4935830;28;97907;-59
2021/12/13 07:24:02;;;;;;;;;;;;;;;11.91;56.38;101668.31;4953568;28;98269;-68
2021/12/13 07:26:36;;;;;;;;;;;;;;;11.91;56.33;101668.31;4951966;28;98431;-60
2021/12/13 07:29:06;;;;;;;;;;;;;;;11.94;56.31;101678.59;4963322;28;97979;-69
2021/12/13 07:31:32;;;;;;;;;;;;;;;11.95;56.05;101675.66;4959064;28;113132;-59
2021/12/13 07:34:08;;;;;;;;;;;;;;;11.97;56.33;101680.81;4956110;28;128601;-59
2021/12/13 07:36:34;;;;;;;;;;;;;;;11.97;56.14;101684.34;4962011;28;98612;-59
2021/12/13 07:39:02;;;;;;;;;;;;;;;11.98;56.31;101680.56;4943042;28;98252;-69
2021/12/13 07:41:40;;;;;;;;;;;;;;;12.00;56.17;101680.31;4941141;28;111938;-68
2021/12/13 07:44:05;;;;;;;;;;;;;;;12.02;56.11;101675.47;4958825;28;97744;-68
2021/12/13 07:46:32;;;;;;;;;;;;;;;12.03;56.12;101687.94;4940170;28;116019;-68
2021/12/13 07:49:08;;;;;;;;;;;;;;;12.04;56.22;101690.38;4957109;28;98446;-59
2021/12/13 07:51:39;;;;;;;;;;;;;;;12.06;56.40;101697.44;4955405;28;97886;-60
2021/12/13 07:54:11;;;;;;;;;;;;;;;12.08;56.18;101685.31;4950836;28;99390;-59
2021/12/13 07:56:37;;;;;;;;;;;;;;;12.09;55.90;101692.34;4956937;28;98965;-59
2021/12/13 07:59:23;;;;;;;;;;;;;;;12.11;56.13;101695.63;4955215;28;98464;-59
2021/12/13 08:01:56;;;;;;;;;;;;;;;12.12;56.11;101693.75;4950912;28;98693;-59
2021/12/13 08:04:26;;;;;;;;;;;;;;;12.15;56.19;101698.66;4955406;28;98639;-60
2021/12/13 08:07:02;;;;;;;;;;;;;;;12.15;56.25;101702.19;4956993;28;98448;-59
2021/12/13 08:09:29;;;;;;;;;;;;;;;12.16;56.08;101706.50;4938202;28;98036;-59
2021/12/13 08:12:17;;;;;;;;;;;;;;;12.18;56.03;101706.25;4950958;28;97817;-60
2021/12/13 08:14:44;;;;;;;;;;;;;;;12.17;56.39;101705.44;4954169;28;98953;-60
2021/12/13 08:17:16;;;;;;;;;;;;;;;12.18;56.07;101712.50;4956650;28;120203;-60
2021/12/13 08:19:43;;;;;;;;;;;;;;;12.20;56.15;101721.16;4931621;28;100273;-60
2021/12/13 08:22:15;;;;;;;;;;;;;;;12.21;56.14;101720.09;4951171;28;111727;-60
2021/12/13 08:24:44;;;;;;;;;;;;;;;12.23;56.21;101711.75;4929635;28;99588;-59
2021/12/13 08:27:13;;;;;;;;;;;;;;;12.23;56.25;101715.28;4950789;28;108422;-59
2021/12/13 08:29:40;;;;;;;;;;;;;;;12.25;56.17;101723.94;4956179;28;98076;-60
2021/12/13 08:32:18;;;;;;;;;;;;;;;12.27;56.21;101723.72;4949829;28;98086;-59
2021/12/13 08:34:49;;;;;;;;;;;;;;;12.28;56.19;101728.84;4957007;28;98441;-60
2021/12/13 08:37:30;;;;;;;;;;;;;;;12.31;56.17;101732.16;4957029;28;98633;-60
2021/12/13 08:40:21;;;;;;;;;;;;;;;12.33;55.94;101735.41;4949940;28;98768;-60
2021/12/13 08:42:48;;;;;;;;;;;;;;;12.34;56.19;101735.16;4945360;28;98117;-59
2021/12/13 08:45:28;;;;;;;;;;;;;;;12.34;56.39;101740.56;4960559;28;124354;-60
2021/12/13 08:48:05;;;;;;;;;;;;;;;12.37;56.24;101750.06;4960192;28;99008;-59
2021/12/13 08:50:37;;;;;;;;;;;;;;;12.38;56.16;101749.84;4942363;28;98960;-59
2021/12/13 08:53:13;;;;;;;;;;;;;;;12.40;56.19;101750.38;4937216;28;117881;-59
2021/12/13 08:55:42;;;;;;;;;;;;;;;12.40;56.35;101746.88;4958949;28;121411;-69
2021/12/13 08:58:14;;;;;;;;;;;;;;;12.42;56.34;101748.25;4940913;28;98695;-59
2021/12/13 09:00:46;;;;;;;;;;;;;;;12.42;56.34;101755.56;4958949;28;97885;-60
2021/12/13 09:03:24;;;;;;;;;;;;;;;12.44;56.25;101766.94;4950853;28;98185;-68
2021/12/13 09:06:16;;;;;;;;;;;;;;;12.44;56.25;101769.63;4960337;28;99185;-69
2021/12/13 09:08:51;;;;;;;;;;;;;;;12.46;56.14;101768.34;4955517;28;98040;-60
2021/12/13 09:11:47;;;;;;;;;;;;;;;12.49;56.18;101772.41;4958480;28;117205;-59
2021/12/13 09:14:42;;;;;;;;;;;;;;;12.51;56.31;101760.28;4956904;28;97777;-59
2021/12/13 09:17:21;;;;;;;;;;;;;;;12.55;56.15;101757.09;4958273;28;98635;-60
2021/12/13 09:19:56;;;;;;;;;;;;;;;12.57;56.14;101754.94;4955836;28;99041;-59
2021/12/13 09:22:38;;;;;;;;;;;;;;;12.62;56.11;101752.31;4948108;28;98296;-59
2021/12/13 09:25:24;;;;;;;;;;;;;;;12.66;56.20;101756.97;4954408;28;118328;-59
2021/12/13 09:28:01;;;;;;;;;;;;;;;12.72;56.08;101755.97;4950031;28;98546;-60
2021/12/13 09:30:35;;;;;;;;;;;;;;;12.77;56.02;101756.06;4949967;28;98430;-60
2021/12/13 09:33:03;;;;;;;;;;;;;;;12.82;55.99;101747.19;4940653;28;100955;-59
2021/12/13 09:35:38;;;;;;;;;;;;;;;12.88;55.88;101739.94;4953838;28;97957;-60
2021/12/13 09:38:25;;;;;;;;;;;;;;;12.93;55.94;101734.56;4955702;28;101397;-60
2021/12/13 09:41:17;;;;;;;;;;;;;;;12.97;55.99;101741.16;4956113;28;98437;-60
2021/12/13 09:44:09;;;;;;;;;;;;;;;13.01;56.12;101740.38;4949386;28;98245;-60
2021/12/13 09:46:39;;;;;;;;;;;;;;;13.03;56.16;101740.13;4955829;28;98029;-59
2021/12/13 09:49:14;;;;;;;;;;;;;;;13.06;56.12;101741.50;4955318;28;99231;-59
2021/12/13 09:51:54;;;;;;;;;;;;;;;13.10;55.96;101748.06;4950990;28;116332;-60
2021/12/13 09:54:23;;;;;;;;;;;;;;;13.10;56.11;101746.16;4935064;28;121868;-59
2021/12/13 09:56:49;;;;;;;;;;;;;;;13.13;56.17;101750.25;4949845;28;97896;-59
2021/12/13 09:59:27;;;;;;;;;;;;;;;13.16;55.93;101745.13;4955686;28;98695;-60
2021/12/13 10:01:54;;;;;;;;;;;;;;;13.20;55.92;101745.44;4950320;28;99278;-60
2021/12/13 10:04:32;;;;;;;;;;;;;;;13.22;56.17;101741.41;4935546;28;99045;-60
2021/12/13 10:07:05;;;;;;;;;;;;;;;13.25;56.28;101748.25;4955426;28;98128;-60
2021/12/13 10:09:37;;;;;;;;;;;;;;;13.27;56.31;101737.97;4955542;28;98433;-60
2021/12/13 10:12:03;;;;;;;;;;;;;;;13.32;55.88;101746.13;4941050;28;98511;-60
2021/12/13 10:14:33;;;;;;;;;;;;;;;13.35;56.28;101742.13;4956194;28;98180;-60
2021/12/13 10:16:59;;;;;;;;;;;;;;;13.36;56.19;101733.75;4949925;28;98182;-69
2021/12/13 10:19:35;;;;;;;;;;;;;;;13.39;56.36;101733.22;4956156;28;99158;-60
2021/12/13 10:22:02;;;;;;;;;;;;;;;13.44;56.03;101727.88;4945797;28;99780;-60
2021/12/13 10:24:34;;;;;;;;;;;;;;;13.49;56.16;101732.53;4959127;28;120172;-60
2021/12/13 10:27:01;;;;;;;;;;;;;;;13.54;56.12;101729.84;4953529;28;97703;-60
2021/12/13 10:29:28;;;;;;;;;;;;;;;13.56;56.00;101735.84;4959410;28;98402;-60
2021/12/13 10:32:01;;;;;;;;;;;;;;;13.58;56.33;101732.88;4959337;28;98287;-60
2021/12/13 10:34:31;;;;;;;;;;;;;;;13.59;56.19;101726.38;4938432;28;112798;-60
2021/12/13 10:37:02;;;;;;;;;;;;;;;13.61;56.42;101730.47;4941127;28;110303;-68
2021/12/13 10:39:41;;;;;;;;;;;;;;;13.60;56.20;101736.97;4962596;28;117281;-69
2021/12/13 10:42:15;;;;;;;;;;;;;;;13.61;56.59;101738.59;4957200;28;119582;-59
2021/12/13 10:44:44;;;;;;;;;;;;;;;13.60;56.78;101736.16;4954830;28;102637;-60
2021/12/13 10:47:16;;;;;;;;;;;;;;;13.60;56.55;101730.75;4964831;28;98238;-59
2021/12/13 10:49:43;;;;;;;;;;;;;;;13.58;56.52;101725.56;4959266;28;110660;-69
2021/12/13 10:52:18;;;;;;;;;;;;;;;13.59;56.47;101727.19;4935204;28;115098;-69
2021/12/13 10:54:47;;;;;;;;;;;;;;;13.60;56.52;101728.03;4949074;28;97855;-68
2021/12/13 10:57:17;;;;;;;;;;;;;;;13.60;56.47;101728.84;4938694;28;113817;-68
2021/12/13 10:59:43;;;;;;;;;;;;;;;13.60;56.93;101725.31;4961341;28;99423;-60
2021/12/13 11:02:12;;;;;;;;;;;;;;;13.60;56.95;101728.03;4953812;28;98137;-60
2021/12/13 11:04:44;;;;;;;;;;;;;;;13.59;56.80;101721.75;4954420;28;98456;-60
2021/12/13 11:07:10;;;;;;;;;;;;;;;13.60;56.71;101723.44;4964744;28;112291;-69
2021/12/13 11:09:38;;;;;;;;;;;;;;;13.61;57.01;101725.06;4966728;28;103541;-69
2021/12/13 11:12:06;;;;;;;;;;;;;;;13.62;56.90;101715.84;4956353;28;122769;-69
2021/12/13 11:14:33;;;;;;;;;;;;;;;13.64;56.74;101721.84;4965817;28;98046;-69
2021/12/13 11:17:08;;;;;;;;;;;;;;;13.67;56.87;101720.47;4967993;28;98251;-69
2021/12/13 11:19:37;;;;;;;;;;;;;;;13.67;56.88;101717.78;4967097;28;99896;-69
2021/12/13 11:22:08;;;;;;;;;;;;;;;13.69;57.03;101719.16;4959013;28;119598;-69
2021/12/13 11:24:35;;;;;;;;;;;;;;;13.70;56.98;101718.06;4966547;28;107290;-69
2021/12/13 11:27:05;;;;;;;;;;;;;;;13.72;56.89;101718.66;4966905;28;98112;-69
2021/12/13 11:29:32;;;;;;;;;;;;;;;13.73;56.92;101714.84;4967465;28;101474;-69
2021/12/13 11:32:44;;;;;;;;;;;;;;;13.76;56.88;101716.25;4949021;28;98248;-69
2021/12/13 11:35:35;;;;;;;;;;;;;;;13.79;57.10;101715.69;4967186;28;98209;-69
2021/12/13 11:38:26;;;;;;;;;;;;;;;13.80;57.06;101720.06;4957722;28;98260;-69
2021/12/13 11:41:24;;;;;;;;;;;;;;;13.83;56.99;101714.09;4966688;28;98193;-69
2021/12/13 11:44:19;;;;;;;;;;;;;;;13.83;56.94;101714.09;4939030;28;100358;-69
2021/12/13 11:47:13;;;;;;;;;;;;;;;13.87;57.08;101717.97;4966344;28;97884;-69
2021/12/13 11:50:20;;;;;;;;;;;;;;;13.91;56.77;101715.53;4965561;28;109335;-69
2021/12/13 11:53:27;;;;;;;;;;;;;;;13.92;57.18;101712.56;4946338;28;99467;-69
2021/12/13 11:56:15;;;;;;;;;;;;;;;13.95;56.94;101706.63;4953719;28;98560;-69
2021/12/13 11:59:07;;;;;;;;;;;;;;;13.96;56.81;101718.28;4953927;28;98384;-69
2021/12/13 12:02:00;;;;;;;;;;;;;;;13.97;57.22;101715.31;4940606;28;97946;-69
2021/12/13 12:05:07;;;;;;;;;;;;;;;13.98;57.21;101724.25;4953539;28;98955;-60
2021/12/13 12:08:01;;;;;;;;;;;;;;;13.99;57.36;101723.22;4955417;28;98640;-60
2021/12/13 12:10:52;;;;;;;;;;;;;;;13.98;56.99;101719.66;4943040;28;99540;-69
2021/12/13 12:13:50;;;;;;;;;;;;;;;13.98;57.14;101721.56;4941587;28;97944;-68
2021/12/13 12:16:18;;;;;;;;;;;;;;;13.97;57.13;101718.03;4958987;28;98648;-68
2021/12/13 12:18:44;;;;;;;;;;;;;;;13.98;57.21;101724.25;4961900;28;114151;-60
2021/12/13 12:21:31;;;;;;;;;;;;;;;13.97;57.16;101720.72;4960574;28;127808;-60
2021/12/13 12:24:01;;;;;;;;;;;;;;;13.99;57.49;101720.50;4953351;28;97862;-69
2021/12/13 12:26:28;;;;;;;;;;;;;;;14.02;57.56;101722.66;4954800;28;124850;-60
2021/12/13 12:28:58;;;;;;;;;;;;;;;14.05;57.42;101724.06;4961965;28;98654;-69
2021/12/13 12:31:35;;;;;;;;;;;;;;;14.06;57.12;101721.06;4959315;28;98632;-69
2021/12/13 12:34:02;;;;;;;;;;;;;;;14.06;57.13;101718.34;4955984;28;97927;-60
2021/12/13 12:36:43;;;;;;;;;;;;;;;14.05;57.71;101714.00;4958628;28;98723;-69
2021/12/13 12:39:38;;;;;;;;;;;;;;;14.03;57.62;101713.47;4962370;28;98653;-59
2021/12/13 12:42:34;;;;;;;;;;;;;;;14.03;57.71;101708.06;4954831;28;97883;-69
2021/12/13 12:45:14;;;;;;;;;;;;;;;14.03;57.28;101709.91;4951131;28;97915;-69
2021/12/13 12:47:59;;;;;;;;;;;;;;;14.05;57.63;101710.50;4960861;28;98954;-60
2021/12/13 12:50:54;;;;;;;;;;;;;;;14.03;57.39;101708.06;4958934;28;98149;-68
2021/12/13 12:53:49;;;;;;;;;;;;;;;14.04;57.28;101717.00;4947066;28;98260;-60
2021/12/13 12:56:21;;;;;;;;;;;;;;;14.03;57.82;101718.06;4958777;28;112993;-69
2021/12/13 12:58:51;;;;;;;;;;;;;;;14.02;57.46;101713.72;4961796;28;109919;-69
2021/12/13 13:01:22;;;;;;;;;;;;;;;14.00;57.70;101720.22;4959931;28;98454;-69
2021/12/13 13:03:48;;;;;;;;;;;;;;;13.99;57.75;101705.03;4954304;28;97809;-69
2021/12/13 13:06:24;;;;;;;;;;;;;;;14.00;57.60;101720.22;4960763;28;98607;-59
2021/12/13 13:08:52;;;;;;;;;;;;;;;14.00;57.86;101720.22;4960945;28;121215;-69
2021/12/13 13:11:27;;;;;;;;;;;;;;;14.01;57.65;101721.03;4956985;28;99154;-69
2021/12/13 13:13:55;;;;;;;;;;;;;;;14.02;57.79;101724.56;4955679;28;98476;-60
2021/12/13 13:16:28;;;;;;;;;;;;;;;14.02;57.97;101719.94;4962674;28;98301;-59